createdAt,value
2023-02-11T00:00:01.400Z,196.9
2023-02-11T00:05:01.405Z,154.6
2023-02-11T00:10:01.360Z,140.1
2023-02-11T00:15:01.400Z,128.4
2023-02-11T00:20:02.362Z,120.9
2023-02-11T00:25:01.398Z,118.2
2023-02-11T00:30:01.363Z,116.3
2023-02-11T00:40:06.783Z,114.3
2023-02-11T00:45:01.744Z,117.5
2023-02-11T00:50:01.459Z,114.5
2023-02-11T00:55:01.427Z,110.5
2023-02-11T01:00:01.369Z,116.1
2023-02-11T01:05:01.974Z,134.2
2023-02-11T01:10:01.392Z,194.3
2023-02-11T01:15:01.430Z,200.2
2023-02-11T01:20:01.370Z,206.4
2023-02-11T01:25:07.773Z,205.0
2023-02-11T01:30:01.654Z,197.0
2023-02-11T01:35:01.822Z,137.9
2023-02-11T01:40:01.653Z,133.6
2023-02-11T01:45:01.538Z,126.9
2023-02-11T02:00:01.349Z,92.0
2023-02-11T02:05:01.213Z,104.0
2023-02-11T02:10:01.072Z,102.4
2023-02-11T02:15:01.188Z,105.0
2023-02-11T02:30:01.731Z,111.6
2023-02-11T02:35:01.705Z,122.0
2023-02-11T02:40:01.603Z,117.5
2023-02-11T02:45:06.729Z,122.5
2023-02-11T02:50:01.576Z,136.9
2023-02-11T02:55:01.619Z,146.2
2023-02-11T03:10:01.761Z,166.2
2023-02-11T03:15:01.475Z,164.0
2023-02-11T03:20:01.329Z,160.0
2023-02-11T03:25:01.465Z,149.9
2023-02-11T03:30:01.396Z,142.6
2023-02-11T03:35:01.465Z,134.1
2023-02-11T04:00:01.228Z,107.8
2023-02-11T04:05:01.123Z,95.8
2023-02-11T04:15:03.262Z,87.5
2023-02-11T04:20:01.059Z,85.8
2023-02-11T04:25:07.951Z,80.6
2023-02-11T04:30:01.053Z,81.0
2023-02-11T04:35:01.493Z,102.6
2023-02-11T04:40:01.405Z,105.9
2023-02-11T04:45:01.251Z,108.9
2023-02-11T04:50:01.081Z,113.9
2023-02-11T04:55:01.555Z,119.9
2023-02-11T05:00:01.115Z,110.5
2023-02-11T05:05:01.152Z,120.2
2023-02-11T05:10:06.211Z,143.5
2023-02-11T05:15:06.164Z,140.8
2023-02-11T05:20:01.427Z,136.9
2023-02-11T05:25:06.125Z,126.2
2023-02-11T05:30:01.228Z,129.0
2023-02-11T05:35:01.168Z,117.0
2023-02-11T05:40:01.095Z,129.8
2023-02-11T05:45:01.770Z,151.9
2023-02-11T05:50:01.117Z,166.5
2023-02-11T05:55:06.130Z,176.4
2023-02-11T06:00:01.535Z,187.6
2023-02-11T06:05:01.803Z,193.4
2023-02-11T06:10:01.104Z,185.2
2023-02-11T06:20:01.061Z,166.2
2023-02-11T06:25:02.627Z,152.8
2023-02-11T06:35:01.189Z,141.6
2023-02-11T06:40:01.384Z,137.8
2023-02-11T06:45:01.344Z,137.3
2023-02-11T06:50:01.105Z,134.4
2023-02-11T06:55:01.316Z,131.1
2023-02-11T07:00:01.130Z,133.6
2023-02-11T07:10:06.306Z,131.7
2023-02-11T07:15:06.258Z,138.8
2023-02-11T07:20:01.583Z,134.7
2023-02-11T07:25:01.060Z,131.2
2023-02-11T07:30:01.101Z,132.4
2023-02-11T07:35:01.332Z,135.8
2023-02-11T07:40:06.165Z,129.0
2023-02-11T07:45:01.326Z,132.1
2023-02-11T07:50:02.639Z,137.2
2023-02-11T07:55:05.109Z,139.4
2023-02-11T08:00:01.187Z,137.2
2023-02-11T08:05:01.989Z,137.2
2023-02-11T08:10:01.302Z,132.2
2023-02-11T08:15:01.327Z,128.6
2023-02-11T08:20:01.577Z,127.2
2023-02-11T08:25:01.312Z,126.6
2023-02-11T08:30:01.226Z,125.7
2023-02-11T08:35:01.384Z,122.5
2023-02-11T08:40:01.262Z,125.2
2023-02-11T08:45:01.409Z,126.6
2023-02-11T08:50:01.222Z,131.0
2023-02-11T08:55:01.408Z,137.1
2023-02-11T09:00:01.286Z,145.4
2023-02-11T09:05:01.414Z,145.3
2023-02-11T09:10:01.330Z,144.1
2023-02-11T09:15:01.226Z,141.5
2023-02-11T09:20:01.068Z,139.1
2023-02-11T09:25:01.228Z,137.7
2023-02-11T09:30:01.388Z,131.0
2023-02-11T09:35:01.262Z,124.0
2023-02-11T09:40:01.117Z,117.2
2023-02-11T09:45:01.134Z,111.2
2023-02-11T09:50:01.418Z,102.7
2023-02-11T09:55:06.253Z,105.5
2023-02-11T10:00:01.375Z,104.7
2023-02-11T10:20:01.025Z,71.4
2023-02-11T10:40:01.833Z,66.0
2023-02-11T10:45:01.505Z,69.6
2023-02-11T10:55:02.468Z,72.2
2023-02-11T11:00:01.393Z,71.2
2023-02-11T11:20:06.465Z,69.6
2023-02-11T11:40:06.981Z,69.8
2023-02-11T11:45:11.614Z,71.5
2023-02-11T11:50:01.559Z,76.8
2023-02-11T12:10:01.689Z,69.2
2023-02-11T12:30:01.676Z,84.8
2023-02-11T12:50:02.060Z,97.4
2023-02-11T13:10:01.597Z,81.6
2023-02-11T13:20:01.520Z,86.6
2023-02-11T13:25:01.617Z,91.1
2023-02-11T13:30:04.626Z,89.6
2023-02-11T13:50:01.393Z,81.6
2023-02-11T13:55:01.191Z,84.0
2023-02-11T14:00:01.182Z,83.4
2023-02-11T14:20:01.851Z,98.4
2023-02-11T14:25:01.901Z,100.1
2023-02-11T14:50:02.457Z,79.6
2023-02-11T14:55:01.739Z,76.5
2023-02-11T15:00:01.505Z,76.8
2023-02-11T15:05:01.397Z,76.3
2023-02-11T15:20:02.166Z,96.2
2023-02-11T15:25:01.972Z,91.6
2023-02-11T15:35:08.353Z,93.5
2023-02-11T15:40:01.872Z,90.3
2023-02-11T16:00:02.004Z,151.4
2023-02-11T16:05:01.660Z,109.4
2023-02-11T16:10:01.535Z,94.4
2023-02-11T16:30:01.620Z,64.4
2023-02-11T16:35:06.169Z,67.8
2023-02-11T16:40:01.505Z,67.7
2023-02-11T16:45:01.549Z,68.2
2023-02-11T16:50:07.154Z,70.9
2023-02-11T16:55:01.747Z,74.9
2023-02-11T17:00:01.343Z,81.5
2023-02-11T17:10:01.366Z,102.0
2023-02-11T17:15:01.178Z,112.5
2023-02-11T17:20:01.097Z,122.4
2023-02-11T17:25:01.793Z,130.4
2023-02-11T17:30:01.112Z,132.2
2023-02-11T17:35:01.670Z,135.3
2023-02-11T17:40:01.342Z,134.8
2023-02-11T17:45:02.220Z,135.8
2023-02-11T17:50:01.250Z,132.9
2023-02-11T17:55:01.267Z,151.8
2023-02-11T18:00:01.228Z,143.5
2023-02-11T18:05:01.679Z,136.2
2023-02-11T18:10:06.176Z,127.0
2023-02-11T18:15:01.297Z,122.3
2023-02-11T18:20:01.417Z,99.6
2023-02-11T18:25:01.224Z,102.8
2023-02-11T18:30:01.148Z,108.6
2023-02-11T18:35:03.298Z,111.9
2023-02-11T18:40:01.630Z,132.1
2023-02-11T18:45:01.438Z,133.3
2023-02-11T18:50:01.154Z,133.9
2023-02-11T18:55:01.443Z,134.4
2023-02-11T19:00:01.452Z,136.0
2023-02-11T19:05:01.805Z,120.1
2023-02-11T19:10:01.184Z,121.1
2023-02-11T19:15:01.266Z,122.1
2023-02-11T19:20:02.179Z,121.2
2023-02-11T19:25:01.788Z,123.5
2023-02-11T19:30:01.485Z,124.4
2023-02-11T19:35:01.265Z,127.0
2023-02-11T19:40:02.470Z,130.8
2023-02-11T19:45:01.598Z,128.5
2023-02-11T19:50:01.483Z,129.7
2023-02-11T19:55:01.268Z,125.0
2023-02-11T20:00:06.140Z,118.4
2023-02-11T20:05:01.280Z,111.6
2023-02-11T20:10:01.829Z,112.9
2023-02-11T20:15:01.259Z,110.4
2023-02-11T20:20:01.491Z,109.7
2023-02-11T20:25:01.588Z,110.2
2023-02-11T20:30:01.146Z,111.6
2023-02-11T20:50:07.070Z,116.6
2023-02-11T20:55:01.925Z,116.2
2023-02-11T21:00:02.108Z,108.3
2023-02-11T21:05:02.207Z,106.2
2023-02-11T21:10:02.139Z,103.2
2023-02-11T21:15:02.019Z,102.0
2023-02-11T21:20:01.908Z,118.3
2023-02-11T21:25:06.987Z,122.0
2023-02-11T21:30:02.120Z,124.1
2023-02-11T21:35:03.221Z,127.8
2023-02-11T21:40:01.944Z,126.5
2023-02-11T21:45:01.908Z,107.4
2023-02-11T21:50:02.177Z,108.0
2023-02-11T21:55:01.945Z,109.4
2023-02-11T22:00:03.030Z,111.6
2023-02-11T22:05:02.702Z,113.6
2023-02-11T22:10:01.822Z,117.0
2023-02-11T22:15:01.930Z,119.2
2023-02-11T22:20:02.144Z,120.2
2023-02-11T22:25:02.243Z,121.9
2023-02-11T22:30:01.813Z,130.5
2023-02-11T22:35:02.400Z,142.1
2023-02-11T22:40:01.817Z,156.1
2023-02-11T22:45:01.953Z,166.0
2023-02-11T22:50:01.816Z,179.2
2023-02-11T22:55:01.961Z,171.7
2023-02-11T23:00:01.857Z,162.9
2023-02-11T23:05:02.017Z,152.0
2023-02-11T23:10:06.802Z,146.2
2023-02-11T23:15:05.327Z,145.6
2023-02-11T23:20:02.258Z,154.1
2023-02-11T23:25:02.751Z,158.8
2023-02-11T23:30:02.081Z,160.8
2023-02-11T23:35:02.912Z,164.8
2023-02-11T23:40:02.769Z,161.3
2023-02-11T23:45:02.274Z,164.7
2023-02-11T23:50:01.786Z,163.8
2023-02-11T23:55:02.232Z,166.3
